Hyundai Forward — 3EJY9 — position and weather

sailwx.info

Track history (hours):
 
Tides and Currents Weather Stations Pressure Air Temp Water Temp Dewpoint Dewpoint Depression Visibility Wind Speed Wind Dir Waves Ship Positions

Hyundai Forward

Last reported at 2016-Feb-13 18:29 UTC. Time now 2016-Feb-14 23:10 UTC.
Position N 27°39' W 118°05'.

Length 295 m; draft 11.9 m.

Type: Cargo ship. MMSI: 372652000.

Date/timePositionNaut miles runAvg speedWind from/ knotsBaromVisibWave heightAir tempDewpointWater temp
2016-Feb-13 18:29N 27°39' W 118°05'1917.4
2016-Feb-13 17:23N 27°51' W 118°22'2117.9
2016-Feb-13 16:11N 28°04' W 118°41'1217.9
2016-Feb-13 15:31N 28°12' W 118°51'1718.1
2016-Feb-13 14:34N 28°22' W 119°07'1817.8
2016-Feb-13 13:33N 28°34' W 119°22'1818.0
2016-Feb-13 12:33N 28°45' W 119°38'1818.1
2016-Feb-13 11:33N 28°56' W 119°55'1918.0
2016-Feb-13 10:31N 29°07' W 120°12'1718.0
2016-Feb-13 09:34N 29°18' W 120°27'2017.7
2016-Feb-13 08:27N 29°31' W 120°45'2017.6
2016-Feb-13 07:19N 29°43' W 121°02'1417.7
2016-Feb-13 06:32N 29°52' W 121°15'1817.9
2016-Feb-13 05:34N 30°03' W 121°31'2117.6
2016-Feb-13 04:21N 30°16' W 121°50'1518.0
2016-Feb-13 03:31N 30°25' W 122°04'1818.2
2016-Feb-13 02:33N 30°36' W 122°19'2217.8
2016-Feb-13 01:20N 30°50' W 122°39'6918.2
2016-Feb-12 21:33N 31°33' W 123°42'1818.1
2016-Feb-12 20:34N 31°44' W 123°58'1918.0
2016-Feb-12 19:31N 31°56' W 124°16'1818.3
2016-Feb-12 18:33N 32°07' W 124°32'7418.3
2016-Feb-12 14:29N 32°54' W 125°40'  
Track history (hours):
 
Tides and Currents Weather Stations Pressure Air Temp Water Temp Dewpoint Dewpoint Depression Visibility Wind Speed Wind Dir Waves Ship Positions

Hyundai Forward

Last reported at 2016-Feb-13 18:29 UTC. Time now 2016-Feb-14 23:10 UTC.
Position N 27°39' W 118°05'.

Length 295 m; draft 11.9 m.

Type: Cargo ship. MMSI: 372652000.

Date/timePositionNaut miles runAvg speedWind from/ knotsBaromVisibWave heightAir tempDewpointWater temp
2016-Feb-13 18:29N 27°39' W 118°05'1917.4
2016-Feb-13 17:23N 27°51' W 118°22'2117.9
2016-Feb-13 16:11N 28°04' W 118°41'1217.9
2016-Feb-13 15:31N 28°12' W 118°51'1718.1
2016-Feb-13 14:34N 28°22' W 119°07'1817.8
2016-Feb-13 13:33N 28°34' W 119°22'1818.0
2016-Feb-13 12:33N 28°45' W 119°38'1818.1
2016-Feb-13 11:33N 28°56' W 119°55'1918.0
2016-Feb-13 10:31N 29°07' W 120°12'1718.0
2016-Feb-13 09:34N 29°18' W 120°27'2017.7
2016-Feb-13 08:27N 29°31' W 120°45'2017.6
2016-Feb-13 07:19N 29°43' W 121°02'1417.7
2016-Feb-13 06:32N 29°52' W 121°15'1817.9
2016-Feb-13 05:34N 30°03' W 121°31'2117.6
2016-Feb-13 04:21N 30°16' W 121°50'1518.0
2016-Feb-13 03:31N 30°25' W 122°04'1818.2
2016-Feb-13 02:33N 30°36' W 122°19'2217.8
2016-Feb-13 01:20N 30°50' W 122°39'6918.2
2016-Feb-12 21:33N 31°33' W 123°42'1818.1
2016-Feb-12 20:34N 31°44' W 123°58'1918.0
2016-Feb-12 19:31N 31°56' W 124°16'1818.3
2016-Feb-12 18:33N 32°07' W 124°32'7418.3
2016-Feb-12 14:29N 32°54' W 125°40'  

Dump ship's entire track history